Time;durP1;ratioP1;P1;durP2;ratioP2;P2;SDS_P1;SDS_P2;PMS_P1;PMS_P2;Temp;Humidity;BMP_temperature;BMP_pressure;BME280_temperature;BME280_humidity;BME280_pressure;Samples;Min_cycle;Max_cycle;Signal;HPM_P1;HPM_P2
2024/01/21 00:00:43;;;;;;;;;;;17.50;50.90;;;;;;5101900;27;43608;-78
2024/01/21 00:03:08;;;;;;;;;;;17.50;50.90;;;;;;5104203;27;43020;-78
2024/01/21 00:05:34;;;;;;;;;;;17.50;50.90;;;;;;5105107;27;43588;-78
2024/01/21 00:08:00;;;;;;;;;;;17.50;50.90;;;;;;5104778;27;42996;-78
2024/01/21 00:10:25;;;;;;;;;;;17.50;51.00;;;;;;5103143;27;45101;-78
2024/01/21 00:12:51;;;;;;;;;;;17.40;51.40;;;;;;5104638;27;43059;-78
2024/01/21 00:15:16;;;;;;;;;;;17.50;50.90;;;;;;5104894;27;43575;-79
2024/01/21 00:17:42;;;;;;;;;;;17.40;50.90;;;;;;5105406;27;42973;-78
2024/01/21 00:20:07;;;;;;;;;;;17.40;50.90;;;;;;5086934;27;44528;-78
2024/01/21 00:22:33;;;;;;;;;;;17.50;50.90;;;;;;5105184;27;43009;-78
2024/01/21 00:24:58;;;;;;;;;;;17.40;50.80;;;;;;5105191;27;42850;-78
2024/01/21 00:27:24;;;;;;;;;;;17.50;50.80;;;;;;5105401;27;42893;-78
2024/01/21 00:29:49;;;;;;;;;;;17.50;50.90;;;;;;5105080;27;42937;-78
2024/01/21 00:32:15;;;;;;;;;;;17.50;50.90;;;;;;5102531;27;42968;-78
2024/01/21 00:34:41;;;;;;;;;;;17.40;50.80;;;;;;5104878;27;43437;-78
2024/01/21 00:37:06;;;;;;;;;;;17.40;50.80;;;;;;5105312;27;42787;-78
2024/01/21 00:39:33;;;;;;;;;;;17.40;50.80;;;;;;5105138;27;43717;-78
2024/01/21 00:41:59;;;;;;;;;;;17.40;50.80;;;;;;5104810;27;42856;-78
2024/01/21 00:44:25;;;;;;;;;;;17.40;50.80;;;;;;5105225;27;43604;-78
2024/01/21 00:46:50;;;;;;;;;;;17.40;50.80;;;;;;5104965;27;44188;-79
2024/01/21 00:49:16;;;;;;;;;;;17.40;50.90;;;;;;5102210;27;43006;-79
2024/01/21 00:51:42;;;;;;;;;;;17.40;50.80;;;;;;5104865;27;43044;-78
2024/01/21 00:54:07;;;;;;;;;;;17.40;50.40;;;;;;5104629;27;43996;-78
2024/01/21 00:56:33;;;;;;;;;;;17.40;50.40;;;;;;5104163;27;43226;-78
2024/01/21 00:58:58;;;;;;;;;;;17.40;51.00;;;;;;5104552;27;42979;-78
2024/01/21 01:01:24;;;;;;;;;;;17.40;51.00;;;;;;5104798;27;43119;-78
2024/01/21 01:03:49;;;;;;;;;;;17.40;51.00;;;;;;5104611;27;43042;-78
2024/01/21 01:06:15;;;;;;;;;;;17.40;51.10;;;;;;5104657;27;42976;-78
2024/01/21 01:08:40;;;;;;;;;;;17.40;51.30;;;;;;5106089;27;43859;-78
2024/01/21 01:11:06;;;;;;;;;;;17.40;51.10;;;;;;5108058;27;42993;-78
2024/01/21 01:13:32;;;;;;;;;;;17.40;51.20;;;;;;5107707;27;43827;-78
2024/01/21 01:16:02;;;;;;;;;;;17.40;51.20;;;;;;5107939;27;43402;-78
2024/01/21 01:18:28;;;;;;;;;;;17.40;51.20;;;;;;5108060;27;43665;-78
2024/01/21 01:20:54;;;;;;;;;;;17.40;51.20;;;;;;5089761;27;42898;-78
2024/01/21 01:23:20;;;;;;;;;;;17.40;51.40;;;;;;5107841;27;44786;-78
2024/01/21 01:25:45;;;;;;;;;;;17.40;51.30;;;;;;5108363;27;42870;-78
2024/01/21 01:28:11;;;;;;;;;;;17.40;51.20;;;;;;5107483;27;43592;-79
2024/01/21 01:30:36;;;;;;;;;;;17.40;51.10;;;;;;5108077;27;42799;-78
2024/01/21 01:33:02;;;;;;;;;;;17.40;51.20;;;;;;5107500;27;42983;-78
2024/01/21 01:35:27;;;;;;;;;;;17.40;51.10;;;;;;5107298;27;43154;-78
2024/01/21 01:37:53;;;;;;;;;;;17.40;51.20;;;;;;5107244;27;42965;-78
2024/01/21 01:40:20;;;;;;;;;;;17.40;51.20;;;;;;5108306;27;42834;-78
2024/01/21 01:42:57;;;;;;;;;;;17.40;51.70;;;;;;5108223;27;43700;-78
2024/01/21 01:45:23;;;;;;;;;;;17.40;51.30;;;;;;5106887;27;42895;-79
2024/01/21 01:47:49;;;;;;;;;;;17.40;51.30;;;;;;5107764;27;43900;-78
2024/01/21 01:50:15;;;;;;;;;;;17.40;51.30;;;;;;5107965;27;42856;-78
2024/01/21 01:52:41;;;;;;;;;;;17.40;51.20;;;;;;5107783;27;43465;-79
2024/01/21 01:55:07;;;;;;;;;;;17.40;51.20;;;;;;5106981;27;42925;-78
2024/01/21 01:57:33;;;;;;;;;;;17.40;51.20;;;;;;5106835;27;44785;-78
2024/01/21 01:59:59;;;;;;;;;;;17.40;51.20;;;;;;5107286;27;43024;-78
2024/01/21 02:02:24;;;;;;;;;;;17.40;51.30;;;;;;5107247;27;42979;-78
2024/01/21 02:04:50;;;;;;;;;;;17.40;51.20;;;;;;5109384;27;42875;-78
2024/01/21 02:07:16;;;;;;;;;;;17.40;51.10;;;;;;5113329;27;43225;-78
2024/01/21 02:09:41;;;;;;;;;;;17.40;50.80;;;;;;5108478;27;42937;-79
2024/01/21 02:12:07;;;;;;;;;;;17.40;51.20;;;;;;5107865;27;43697;-78
2024/01/21 02:14:32;;;;;;;;;;;17.40;51.20;;;;;;5107972;27;42988;-78
2024/01/21 02:16:58;;;;;;;;;;;17.40;51.20;;;;;;5107213;27;43023;-78
2024/01/21 02:19:27;;;;;;;;;;;17.40;51.30;;;;;;5106680;27;43022;-78
2024/01/21 02:21:53;;;;;;;;;;;17.40;51.20;;;;;;5106803;27;42879;-78
2024/01/21 02:24:19;;;;;;;;;;;17.40;51.30;;;;;;5107439;27;42949;-78
2024/01/21 02:26:47;;;;;;;;;;;17.40;51.20;;;;;;5107304;27;42779;-78
2024/01/21 02:29:13;;;;;;;;;;;17.40;51.30;;;;;;5107365;27;42923;-78
2024/01/21 02:31:39;;;;;;;;;;;17.30;51.30;;;;;;5106918;27;42983;-78
2024/01/21 02:34:04;;;;;;;;;;;17.40;51.30;;;;;;5106951;27;43625;-78
2024/01/21 02:36:30;;;;;;;;;;;17.40;51.30;;;;;;5106489;27;43585;-78
2024/01/21 02:38:55;;;;;;;;;;;17.30;51.20;;;;;;5106826;27;42919;-78
2024/01/21 02:41:21;;;;;;;;;;;17.30;51.20;;;;;;5088472;27;44635;-78
2024/01/21 02:43:46;;;;;;;;;;;17.30;50.80;;;;;;5106900;27;42859;-78
2024/01/21 02:46:12;;;;;;;;;;;17.40;51.30;;;;;;5105945;27;42844;-78
2024/01/21 02:48:37;;;;;;;;;;;17.30;51.20;;;;;;5105786;27;43108;-78
2024/01/21 02:51:03;;;;;;;;;;;17.40;51.50;;;;;;5106276;27;42870;-78
2024/01/21 02:53:28;;;;;;;;;;;17.30;51.50;;;;;;5106598;27;42786;-78
2024/01/21 02:55:54;;;;;;;;;;;17.40;51.30;;;;;;5106635;27;43821;-78
2024/01/21 02:58:19;;;;;;;;;;;17.30;51.30;;;;;;5106905;27;42911;-78
2024/01/21 03:00:45;;;;;;;;;;;17.30;51.30;;;;;;5107058;27;43028;-78
2024/01/21 03:03:10;;;;;;;;;;;17.30;51.30;;;;;;5106843;27;43051;-78
2024/01/21 03:05:36;;;;;;;;;;;17.40;51.30;;;;;;5106371;27;43477;-78
2024/01/21 03:08:02;;;;;;;;;;;17.40;51.30;;;;;;5106428;27;42984;-78
2024/01/21 03:10:27;;;;;;;;;;;17.30;51.30;;;;;;5107820;27;43579;-78
2024/01/21 03:12:52;;;;;;;;;;;18.90;52.10;;;;;;5107887;27;43072;-78
2024/01/21 03:15:18;;;;;;;;;;;17.30;51.30;;;;;;5107248;27;43522;-79
2024/01/21 03:17:44;;;;;;;;;;;17.30;51.30;;;;;;5107782;27;42939;-78
2024/01/21 03:20:10;;;;;;;;;;;17.30;51.30;;;;;;5107164;27;43606;-78
2024/01/21 03:22:36;;;;;;;;;;;17.30;51.30;;;;;;5107268;27;42946;-78
2024/01/21 03:25:02;;;;;;;;;;;17.30;51.30;;;;;;5088072;27;43051;-78
2024/01/21 03:27:27;;;;;;;;;;;17.30;51.40;;;;;;5106817;27;43218;-78
2024/01/21 03:29:53;;;;;;;;;;;17.30;51.40;;;;;;5106950;27;43528;-78
2024/01/21 03:32:18;;;;;;;;;;;17.30;51.30;;;;;;5106691;27;42979;-78
2024/01/21 03:34:44;;;;;;;;;;;17.30;51.40;;;;;;5106450;27;42953;-79
2024/01/21 03:37:10;;;;;;;;;;;17.30;51.40;;;;;;5105876;27;42937;-78
2024/01/21 03:39:35;;;;;;;;;;;17.30;51.40;;;;;;5105456;27;43365;-78
2024/01/21 03:42:01;;;;;;;;;;;17.30;51.30;;;;;;5105706;27;42938;-78
2024/01/21 03:44:26;;;;;;;;;;;17.30;51.40;;;;;;5105522;27;43527;-78
2024/01/21 03:46:52;;;;;;;;;;;17.30;51.50;;;;;;5105397;27;43028;-78
2024/01/21 03:49:18;;;;;;;;;;;17.30;51.50;;;;;;5105413;27;42984;-78
2024/01/21 03:51:43;;;;;;;;;;;17.30;50.90;;;;;;5104755;27;43024;-78
2024/01/21 03:54:09;;;;;;;;;;;17.30;51.40;;;;;;5105138;27;43348;-78
2024/01/21 03:56:34;;;;;;;;;;;17.40;51.50;;;;;;5105316;27;42930;-78
2024/01/21 03:59:00;;;;;;;;;;;17.30;51.50;;;;;;5105251;27;42968;-78
2024/01/21 04:01:25;;;;;;;;;;;17.30;51.80;;;;;;5105512;27;43072;-78
2024/01/21 04:03:51;;;;;;;;;;;17.30;51.40;;;;;;5105004;27;43021;-78
2024/01/21 04:06:16;;;;;;;;;;;17.30;51.40;;;;;;5105704;27;43025;-78
2024/01/21 04:08:42;;;;;;;;;;;17.30;51.40;;;;;;5086409;27;43636;-78
2024/01/21 04:11:08;;;;;;;;;;;17.40;51.50;;;;;;5104599;27;43132;-78
2024/01/21 04:13:33;;;;;;;;;;;17.30;51.50;;;;;;5105062;27;43447;-79
2024/01/21 04:15:59;;;;;;;;;;;17.30;51.40;;;;;;5105604;27;43024;-78
2024/01/21 04:18:25;;;;;;;;;;;17.30;51.50;;;;;;5104995;27;42799;-78
2024/01/21 04:20:50;;;;;;;;;;;17.30;51.50;;;;;;5105445;27;42993;-77
2024/01/21 04:23:16;;;;;;;;;;;17.30;51.80;;;;;;5108092;27;43379;-78
2024/01/21 04:25:41;;;;;;;;;;;17.30;51.50;;;;;;5110817;27;43016;-78
2024/01/21 04:28:07;;;;;;;;;;;17.30;51.50;;;;;;5105477;27;43010;-79
2024/01/21 04:30:32;;;;;;;;;;;17.30;51.50;;;;;;5104687;27;43045;-78
2024/01/21 04:32:58;;;;;;;;;;;17.30;51.50;;;;;;5104491;27;43667;-79
2024/01/21 04:35:23;;;;;;;;;;;17.30;51.50;;;;;;5104975;27;42962;-79
2024/01/21 04:37:49;;;;;;;;;;;17.30;51.50;;;;;;5104491;27;42764;-78
2024/01/21 04:40:14;;;;;;;;;;;17.30;51.50;;;;;;5087455;27;43008;-79
2024/01/21 04:42:39;;;;;;;;;;;17.30;51.50;;;;;;5106772;27;43642;-78
2024/01/21 04:45:05;;;;;;;;;;;17.30;51.50;;;;;;5108721;27;42915;-78
2024/01/21 04:47:31;;;;;;;;;;;17.30;51.60;;;;;;5108095;27;43811;-78
2024/01/21 04:49:56;;;;;;;;;;;17.30;51.60;;;;;;5108070;27;43027;-78
2024/01/21 04:52:22;;;;;;;;;;;17.30;51.60;;;;;;5108373;27;43588;-79
2024/01/21 04:54:47;;;;;;;;;;;17.30;51.50;;;;;;5108658;27;42946;-78
2024/01/21 04:57:13;;;;;;;;;;;17.30;51.50;;;;;;5108489;27;43051;-78
2024/01/21 04:59:38;;;;;;;;;;;17.30;51.60;;;;;;5108423;27;43303;-78
2024/01/21 05:02:04;;;;;;;;;;;17.30;51.60;;;;;;5090023;27;44601;-78
2024/01/21 05:04:29;;;;;;;;;;;17.30;51.60;;;;;;5106157;27;42906;-79
2024/01/21 05:06:55;;;;;;;;;;;17.30;51.60;;;;;;5108250;27;44427;-78
2024/01/21 05:09:20;;;;;;;;;;;17.30;51.50;;;;;;5106938;27;42932;-78
2024/01/21 05:11:46;;;;;;;;;;;17.30;51.50;;;;;;5107720;27;42992;-78
2024/01/21 05:14:11;;;;;;;;;;;17.30;51.50;;;;;;5108233;27;42976;-77
2024/01/21 05:16:40;;;;;;;;;;;17.30;51.50;;;;;;5107776;27;43024;-78
2024/01/21 05:19:05;;;;;;;;;;;17.30;51.50;;;;;;5107925;27;43071;-78
2024/01/21 05:21:31;;;;;;;;;;;17.30;51.50;;;;;;5089082;27;44208;-78
2024/01/21 05:23:57;;;;;;;;;;;17.30;51.50;;;;;;5107717;27;43094;-78
2024/01/21 05:26:23;;;;;;;;;;;17.30;51.50;;;;;;5108016;27;43196;-78
2024/01/21 05:28:48;;;;;;;;;;;17.20;51.50;;;;;;5107723;27;43061;-78
2024/01/21 05:31:14;;;;;;;;;;;17.30;51.50;;;;;;5107461;27;43138;-77
2024/01/21 05:33:40;;;;;;;;;;;17.20;51.50;;;;;;5107680;27;42928;-77
2024/01/21 05:36:06;;;;;;;;;;;17.20;51.40;;;;;;5107707;27;43454;-77
2024/01/21 05:38:31;;;;;;;;;;;17.20;51.50;;;;;;5107832;27;42870;-77
2024/01/21 05:40:57;;;;;;;;;;;17.20;51.50;;;;;;5102392;27;43578;-78
2024/01/21 05:43:22;;;;;;;;;;;17.20;51.50;;;;;;5105583;27;42873;-78
2024/01/21 05:45:48;;;;;;;;;;;17.20;51.60;;;;;;5107743;27;42822;-79
2024/01/21 05:48:13;;;;;;;;;;;17.20;51.50;;;;;;5107747;27;42824;-78
2024/01/21 05:50:39;;;;;;;;;;;17.20;51.50;;;;;;5106902;27;43435;-78
2024/01/21 05:53:06;;;;;;;;;;;17.20;51.50;;;;;;5107420;27;44181;-78
2024/01/21 05:55:32;;;;;;;;;;;17.30;51.50;;;;;;5103610;27;42925;-78
2024/01/21 05:57:58;;;;;;;;;;;17.30;51.50;;;;;;5105712;27;43008;-78
2024/01/21 06:00:23;;;;;;;;;;;17.20;51.40;;;;;;5107288;27;42931;-77
2024/01/21 06:02:50;;;;;;;;;;;17.20;51.50;;;;;;5107323;27;42951;-78
2024/01/21 06:05:16;;;;;;;;;;;17.30;51.60;;;;;;5106863;27;42906;-79
2024/01/21 06:07:41;;;;;;;;;;;17.20;51.50;;;;;;5106849;27;43631;-78
2024/01/21 06:10:07;;;;;;;;;;;17.20;51.50;;;;;;5107353;27;43580;-78
2024/01/21 06:12:32;;;;;;;;;;;17.20;51.50;;;;;;5107298;27;43041;-78
2024/01/21 06:14:58;;;;;;;;;;;17.20;51.40;;;;;;5106646;27;43068;-78
2024/01/21 06:17:23;;;;;;;;;;;17.20;51.50;;;;;;5106539;27;42872;-78
2024/01/21 06:19:49;;;;;;;;;;;17.20;51.50;;;;;;5106963;27;43466;-78
2024/01/21 06:22:14;;;;;;;;;;;17.20;51.50;;;;;;5107053;27;42928;-77
2024/01/21 06:24:40;;;;;;;;;;;17.20;51.50;;;;;;5106997;27;44283;-78
2024/01/21 06:27:05;;;;;;;;;;;17.20;51.50;;;;;;5105648;27;43012;-77
2024/01/21 06:29:31;;;;;;;;;;;17.30;51.50;;;;;;5105663;27;42995;-78
2024/01/21 06:31:57;;;;;;;;;;;17.20;51.50;;;;;;5107278;27;42933;-78
2024/01/21 06:34:22;;;;;;;;;;;17.20;51.50;;;;;;5107301;27;43146;-78
2024/01/21 06:36:48;;;;;;;;;;;17.20;51.50;;;;;;5107079;27;43230;-77
2024/01/21 06:39:13;;;;;;;;;;;17.20;51.00;;;;;;5096918;27;44805;-78
2024/01/21 06:41:39;;;;;;;;;;;17.20;51.50;;;;;;5108399;27;43003;-77
2024/01/21 06:44:04;;;;;;;;;;;17.20;51.60;;;;;;5113108;27;43540;-78
2024/01/21 06:46:30;;;;;;;;;;;17.30;51.70;;;;;;5106808;27;42937;-77
2024/01/21 06:48:55;;;;;;;;;;;17.20;51.70;;;;;;5106896;27;43702;-78
2024/01/21 06:51:42;;;;;;;;;;;17.20;51.80;;;;;;5106268;27;42857;-78
2024/01/21 06:54:08;;;;;;;;;;;17.20;51.60;;;;;;5103521;27;43645;-77
2024/01/21 06:56:33;;;;;;;;;;;17.20;51.60;;;;;;5106014;27;42976;-78
2024/01/21 06:58:59;;;;;;;;;;;17.10;51.10;;;;;;5105465;27;43006;-78
2024/01/21 07:01:25;;;;;;;;;;;17.20;51.10;;;;;;5106795;27;43024;-78
2024/01/21 07:03:50;;;;;;;;;;;17.20;51.10;;;;;;5105230;27;44003;-77
2024/01/21 07:06:16;;;;;;;;;;;17.20;52.10;;;;;;5107124;27;43030;-78
2024/01/21 07:08:41;;;;;;;;;;;17.20;51.60;;;;;;5105005;27;43161;-77
2024/01/21 07:11:07;;;;;;;;;;;17.20;51.60;;;;;;5106205;27;42961;-77
2024/01/21 07:13:33;;;;;;;;;;;17.20;51.60;;;;;;5096224;27;43808;-78
2024/01/21 07:15:58;;;;;;;;;;;17.20;51.70;;;;;;5106406;27;43065;-77
2024/01/21 07:18:25;;;;;;;;;;;17.20;51.60;;;;;;5105625;27;43202;-78
2024/01/21 07:20:50;;;;;;;;;;;17.20;51.60;;;;;;5104972;27;43192;-78
2024/01/21 07:23:16;;;;;;;;;;;17.40;51.70;;;;;;5105090;27;43036;-78
2024/01/21 07:25:42;;;;;;;;;;;17.20;51.60;;;;;;5086068;27;43234;-78
2024/01/21 07:28:07;;;;;;;;;;;17.20;51.60;;;;;;5103420;27;44563;-78
2024/01/21 07:30:33;;;;;;;;;;;17.20;51.60;;;;;;5086326;27;43012;-77
2024/01/21 07:32:58;;;;;;;;;;;17.20;51.60;;;;;;5101375;27;42928;-78
2024/01/21 07:35:24;;;;;;;;;;;17.20;49.10;;;;;;5087243;27;43014;-78
2024/01/21 07:37:49;;;;;;;;;;;17.00;39.60;;;;;;5106050;27;43825;-78
2024/01/21 07:40:15;;;;;;;;;;;16.70;36.10;;;;;;5106910;27;42924;-78
2024/01/21 07:42:40;;;;;;;;;;;16.40;33.90;;;;;;5106476;27;42960;-78
2024/01/21 07:45:06;;;;;;;;;;;16.10;33.00;;;;;;5102326;27;42982;-79
2024/01/21 07:47:31;;;;;;;;;;;15.80;33.10;;;;;;5101513;27;43045;-78
2024/01/21 07:49:57;;;;;;;;;;;15.60;32.20;;;;;;5104685;27;42885;-79
2024/01/21 07:52:22;;;;;;;;;;;15.40;31.60;;;;;;5104380;27;42949;-80
2024/01/21 07:54:48;;;;;;;;;;;15.20;31.30;;;;;;5098751;27;43150;-79
2024/01/21 07:57:14;;;;;;;;;;;15.10;31.30;;;;;;5099354;27;42977;-80
2024/01/21 07:59:39;;;;;;;;;;;14.90;30.80;;;;;;5104374;27;42988;-80
2024/01/21 08:02:05;;;;;;;;;;;14.80;31.60;;;;;;5105311;27;42946;-79
2024/01/21 08:04:30;;;;;;;;;;;14.70;32.20;;;;;;5105495;27;42994;-81
2024/01/21 08:06:56;;;;;;;;;;;14.60;33.80;;;;;;5104979;27;42874;-88
2024/01/21 08:09:21;;;;;;;;;;;14.70;35.80;;;;;;5101727;27;44066;-85
2024/01/21 08:11:47;;;;;;;;;;;14.80;38.10;;;;;;5104990;27;43344;-85
2024/01/21 08:14:12;;;;;;;;;;;15.00;39.20;;;;;;5104985;27;43031;-87
2024/01/21 08:16:38;;;;;;;;;;;15.20;39.90;;;;;;5104099;27;42955;-84
2024/01/21 08:19:04;;;;;;;;;;;15.40;40.50;;;;;;5103633;27;42974;-86
2024/01/21 08:21:29;;;;;;;;;;;15.50;38.10;;;;;;5103425;27;43840;-90
2024/01/21 08:23:55;;;;;;;;;;;15.50;34.70;;;;;;5104219;27;42897;-88
2024/01/21 08:26:20;;;;;;;;;;;15.40;33.10;;;;;;5103615;27;43088;-91
2024/01/21 08:28:46;;;;;;;;;;;15.30;32.80;;;;;;5105273;27;42941;-90
2024/01/21 08:31:11;;;;;;;;;;;15.10;32.10;;;;;;5103952;27;43552;-86
2024/01/21 08:33:37;;;;;;;;;;;14.90;32.20;;;;;;5104836;27;42910;-91
2024/01/21 08:36:03;;;;;;;;;;;14.80;31.60;;;;;;5104932;27;43877;-91
2024/01/21 08:38:28;;;;;;;;;;;14.70;31.00;;;;;;5105967;27;42987;-80
2024/01/21 08:40:54;;;;;;;;;;;14.60;33.40;;;;;;5100545;27;43287;-81
2024/01/21 08:43:19;;;;;;;;;;;14.60;34.60;;;;;;5105123;27;42975;-81
2024/01/21 08:45:45;;;;;;;;;;;14.60;34.10;;;;;;5104459;27;42922;-83
2024/01/21 08:48:11;;;;;;;;;;;14.60;33.40;;;;;;5104381;27;42985;-83
2024/01/21 08:50:36;;;;;;;;;;;14.50;32.90;;;;;;5093115;27;43856;-83
2024/01/21 08:53:02;;;;;;;;;;;14.60;33.20;;;;;;5103501;27;43070;-81
2024/01/21 08:55:27;;;;;;;;;;;14.60;32.90;;;;;;5101897;27;43109;-81
2024/01/21 08:57:53;;;;;;;;;;;14.70;32.80;;;;;;5102688;27;42983;-83
2024/01/21 09:00:18;;;;;;;;;;;14.60;32.80;;;;;;5105749;27;44188;-79
2024/01/21 09:02:44;;;;;;;;;;;14.60;32.70;;;;;;5110269;27;42745;-80
2024/01/21 09:05:10;;;;;;;;;;;14.70;33.80;;;;;;5104301;27;42945;-81
2024/01/21 09:07:35;;;;;;;;;;;14.80;35.20;;;;;;5104953;27;42977;-79
2024/01/21 09:10:03;;;;;;;;;;;14.90;36.60;;;;;;5101202;27;43529;-89
2024/01/21 09:12:29;;;;;;;;;;;15.10;37.90;;;;;;5102553;27;42960;-81
2024/01/21 09:14:55;;;;;;;;;;;15.20;38.10;;;;;;5102789;27;42950;-81
2024/01/21 09:17:20;;;;;;;;;;;15.40;38.80;;;;;;5104968;27;43006;-81
2024/01/21 09:19:46;;;;;;;;;;;15.40;38.70;;;;;;5104956;27;42937;-80
2024/01/21 09:22:11;;;;;;;;;;;15.60;39.50;;;;;;5104827;27;43146;-81
2024/01/21 09:24:37;;;;;;;;;;;15.70;39.80;;;;;;5105012;27;42930;-81
2024/01/21 09:27:03;;;;;;;;;;;15.70;40.00;;;;;;5104506;27;43004;-81
2024/01/21 09:29:28;;;;;;;;;;;15.80;40.30;;;;;;5105952;27;43486;-81
2024/01/21 09:31:57;;;;;;;;;;;15.80;40.50;;;;;;5108023;27;42996;-82
2024/01/21 09:34:23;;;;;;;;;;;15.90;40.60;;;;;;5107976;27;43502;-81
2024/01/21 09:36:51;;;;;;;;;;;15.90;40.70;;;;;;5108743;27;42941;-80
2024/01/21 09:39:17;;;;;;;;;;;15.90;40.80;;;;;;5108746;27;42963;-79
2024/01/21 09:41:47;;;;;;;;;;;16.00;41.10;;;;;;5108479;27;42919;-81
2024/01/21 09:44:13;;;;;;;;;;;16.00;41.10;;;;;;5108545;27;42845;-82
2024/01/21 09:46:39;;;;;;;;;;;16.00;41.30;;;;;;5108551;27;42922;-81
2024/01/21 09:49:06;;;;;;;;;;;17.80;42.90;;;;;;5108448;27;43112;-81
2024/01/21 09:51:32;;;;;;;;;;;16.10;41.60;;;;;;5107600;27;42969;-81
2024/01/21 09:53:58;;;;;;;;;;;16.10;41.20;;;;;;5106166;27;45294;-81
2024/01/21 09:56:24;;;;;;;;;;;16.10;41.80;;;;;;5108427;27;42847;-80
2024/01/21 09:58:50;;;;;;;;;;;16.10;42.00;;;;;;5108426;27;42815;-80
2024/01/21 10:01:16;;;;;;;;;;;16.10;42.10;;;;;;5108524;27;42917;-81
2024/01/21 10:03:42;;;;;;;;;;;16.20;42.30;;;;;;5108396;27;43757;-80
2024/01/21 10:06:08;;;;;;;;;;;16.20;42.30;;;;;;5108182;27;43077;-79
2024/01/21 10:08:37;;;;;;;;;;;16.20;42.40;;;;;;5107744;27;43763;-81
2024/01/21 10:11:03;;;;;;;;;;;16.20;42.50;;;;;;5107635;27;42969;-81
2024/01/21 10:13:30;;;;;;;;;;;16.20;42.60;;;;;;5107431;27;43416;-81
2024/01/21 10:15:56;;;;;;;;;;;16.20;42.70;;;;;;5108221;27;42763;-80
2024/01/21 10:18:22;;;;;;;;;;;16.20;42.80;;;;;;5107901;27;42925;-81
2024/01/21 10:20:47;;;;;;;;;;;16.20;42.90;;;;;;5089120;27;42779;-81
2024/01/21 10:23:13;;;;;;;;;;;16.20;43.00;;;;;;5107366;27;42802;-81
2024/01/21 10:25:40;;;;;;;;;;;16.20;43.00;;;;;;5107532;27;43015;-81
2024/01/21 10:28:06;;;;;;;;;;;16.20;43.00;;;;;;5107870;27;43584;-82
2024/01/21 10:30:32;;;;;;;;;;;16.30;43.10;;;;;;5088852;27;43039;-81
2024/01/21 10:32:58;;;;;;;;;;;16.30;43.30;;;;;;5107708;27;44004;-81
2024/01/21 10:35:23;;;;;;;;;;;16.20;43.20;;;;;;5107276;27;42870;-81
2024/01/21 10:37:49;;;;;;;;;;;16.30;43.30;;;;;;5107876;27;42968;-80
2024/01/21 10:40:14;;;;;;;;;;;16.30;43.30;;;;;;5108558;27;42819;-81
2024/01/21 10:42:41;;;;;;;;;;;16.20;43.30;;;;;;5106901;27;43538;-79
2024/01/21 10:45:06;;;;;;;;;;;16.30;43.40;;;;;;5107962;27;42925;-81
2024/01/21 10:47:32;;;;;;;;;;;16.30;43.50;;;;;;5107451;27;42858;-81
2024/01/21 10:49:58;;;;;;;;;;;16.30;43.60;;;;;;5107411;27;42934;-81
2024/01/21 10:52:24;;;;;;;;;;;16.30;43.70;;;;;;5107614;27;43052;-81
2024/01/21 10:54:49;;;;;;;;;;;16.30;43.80;;;;;;5107556;27;43013;-81
2024/01/21 10:57:17;;;;;;;;;;;16.30;43.80;;;;;;5106246;27;43781;-81
2024/01/21 10:59:42;;;;;;;;;;;16.30;43.90;;;;;;5106844;27;42957;-81
2024/01/21 11:02:08;;;;;;;;;;;16.30;44.00;;;;;;5107356;27;43844;-81
2024/01/21 11:04:36;;;;;;;;;;;16.30;44.10;;;;;;5107425;27;42842;-80
2024/01/21 11:07:03;;;;;;;;;;;16.30;44.10;;;;;;5107296;27;43533;-81
2024/01/21 11:09:30;;;;;;;;;;;16.30;44.20;;;;;;5107499;27;42922;-80
2024/01/21 11:11:55;;;;;;;;;;;16.30;44.20;;;;;;5106845;27;43885;-80
2024/01/21 11:14:27;;;;;;;;;;;16.30;44.50;;;;;;5107310;27;43547;-81
2024/01/21 11:16:56;;;;;;;;;;;16.30;44.30;;;;;;5107128;27;44058;-81
2024/01/21 11:19:23;;;;;;;;;;;16.30;44.30;;;;;;5107659;27;43060;-81
2024/01/21 11:21:54;;;;;;;;;;;16.30;44.40;;;;;;5114848;27;43434;-81
2024/01/21 11:24:19;;;;;;;;;;;16.30;44.30;;;;;;5107499;27;43262;-79
2024/01/21 11:26:46;;;;;;;;;;;16.30;44.30;;;;;;5107434;27;42818;-80
2024/01/21 11:29:21;;;;;;;;;;;16.30;44.20;;;;;;5106507;27;42944;-81
2024/01/21 11:31:50;;;;;;;;;;;16.30;44.20;;;;;;5106988;27;42948;-81
2024/01/21 11:34:16;;;;;;;;;;;16.30;44.40;;;;;;5106913;27;42911;-81
2024/01/21 11:36:43;;;;;;;;;;;16.30;44.40;;;;;;5106764;27;43248;-81
2024/01/21 11:39:09;;;;;;;;;;;16.30;44.40;;;;;;5106951;27;42841;-81
2024/01/21 11:41:38;;;;;;;;;;;16.30;44.30;;;;;;5106607;27;42859;-81
2024/01/21 11:44:22;;;;;;;;;;;14.60;43.40;;;;;;5088434;27;42777;-81
2024/01/21 11:46:49;;;;;;;;;;;16.30;44.30;;;;;;5106286;27;42891;-81
2024/01/21 11:49:14;;;;;;;;;;;16.30;44.30;;;;;;5106518;27;42938;-81
2024/01/21 11:51:40;;;;;;;;;;;16.30;44.50;;;;;;5105817;27;43658;-81
2024/01/21 11:54:06;;;;;;;;;;;16.30;44.60;;;;;;5106151;27;42917;-81
2024/01/21 11:56:32;;;;;;;;;;;16.30;44.50;;;;;;5106519;27;43008;-81
2024/01/21 11:58:57;;;;;;;;;;;16.30;44.50;;;;;;5106646;27;42759;-81
2024/01/21 12:01:26;;;;;;;;;;;16.30;44.50;;;;;;5105704;27;43411;-81
2024/01/21 12:03:55;;;;;;;;;;;16.30;44.50;;;;;;5105999;27;42771;-81
2024/01/21 12:06:20;;;;;;;;;;;16.30;44.50;;;;;;5105989;27;42913;-81
2024/01/21 12:08:46;;;;;;;;;;;16.30;44.60;;;;;;5105917;27;42848;-80
2024/01/21 12:11:13;;;;;;;;;;;16.30;44.50;;;;;;5105639;27;43720;-81
2024/01/21 12:13:40;;;;;;;;;;;16.30;44.70;;;;;;5106004;27;42972;-81
2024/01/21 12:16:08;;;;;;;;;;;16.30;44.90;;;;;;5105429;27;42956;-80
2024/01/21 12:18:40;;;;;;;;;;;16.40;45.00;;;;;;5104074;27;43056;-81
2024/01/21 12:21:06;;;;;;;;;;;16.30;45.00;;;;;;5105554;27;43750;-81
2024/01/21 12:23:31;;;;;;;;;;;16.30;45.00;;;;;;5105735;27;42978;-81
2024/01/21 12:25:57;;;;;;;;;;;16.30;45.00;;;;;;5087228;27;44775;-81
2024/01/21 12:28:22;;;;;;;;;;;16.30;45.00;;;;;;5106079;27;42953;-81
2024/01/21 12:30:48;;;;;;;;;;;16.30;45.00;;;;;;5105955;27;42823;-81
2024/01/21 12:33:14;;;;;;;;;;;16.30;45.10;;;;;;5106537;27;42985;-81
2024/01/21 12:35:40;;;;;;;;;;;16.40;45.20;;;;;;5105372;27;44343;-81
2024/01/21 12:38:05;;;;;;;;;;;16.30;45.10;;;;;;5105965;27;42973;-81
2024/01/21 12:40:31;;;;;;;;;;;16.40;45.30;;;;;;5106085;27;42933;-82
2024/01/21 12:42:56;;;;;;;;;;;16.40;45.40;;;;;;5106046;27;43209;-81
2024/01/21 12:45:22;;;;;;;;;;;16.40;45.30;;;;;;5105763;27;43342;-81
2024/01/21 12:47:47;;;;;;;;;;;16.40;45.50;;;;;;5086895;27;43333;-81
2024/01/21 12:50:13;;;;;;;;;;;16.30;45.40;;;;;;5105452;27;44110;-81
2024/01/21 12:52:38;;;;;;;;;;;16.30;45.40;;;;;;5105540;27;43034;-81
2024/01/21 12:55:05;;;;;;;;;;;16.30;45.50;;;;;;5104071;27;42918;-82
2024/01/21 12:57:30;;;;;;;;;;;16.30;45.50;;;;;;5098603;27;43892;-80
2024/01/21 12:59:56;;;;;;;;;;;16.40;45.60;;;;;;5104373;27;43577;-81
2024/01/21 13:02:22;;;;;;;;;;;16.30;40.70;;;;;;5105126;27;42826;-81
2024/01/21 13:04:48;;;;;;;;;;;16.30;41.20;;;;;;5097849;27;44711;-82
2024/01/21 13:07:14;;;;;;;;;;;16.20;42.80;;;;;;5105435;27;43259;-82
2024/01/21 13:09:39;;;;;;;;;;;16.20;44.10;;;;;;5107413;27;43066;-82
2024/01/21 13:12:05;;;;;;;;;;;16.30;44.70;;;;;;5108320;27;43071;-80
2024/01/21 13:14:31;;;;;;;;;;;16.30;45.00;;;;;;5108782;27;42996;-82
2024/01/21 13:16:57;;;;;;;;;;;16.30;45.10;;;;;;5096324;27;43048;-82
2024/01/21 13:19:23;;;;;;;;;;;16.40;45.20;;;;;;5108362;27;43013;-81
2024/01/21 13:24:58;;;;;;;;;;;17.30;45.70;;;;;;5085067;28;42852;-81
2024/01/21 13:36:21;;;;;;;;;;;16.50;45.70;;;;;;5701505;22;43207;-81
2024/01/21 13:39:05;;;;;;;;;;;17.30;46.00;;;;;;5116701;27;43057;-81
2024/01/21 13:41:36;;;;;;;;;;;17.40;46.10;;;;;;5088999;28;42961;-81
2024/01/21 13:44:11;;;;;;;;;;;18.10;46.50;;;;;;5087241;28;43031;-81
2024/01/21 13:46:36;;;;;;;;;;;20.50;47.80;;;;;;5081660;28;42964;-82
2024/01/21 13:49:02;;;;;;;;;;;16.50;45.30;;;;;;5082526;28;42962;-80
2024/01/21 13:51:28;;;;;;;;;;;16.50;45.90;;;;;;5085356;28;43745;-81
2024/01/21 13:53:53;;;;;;;;;;;16.50;45.90;;;;;;5086606;27;42935;-81
2024/01/21 13:56:19;;;;;;;;;;;16.60;46.00;;;;;;5084593;28;43401;-81
2024/01/21 13:58:44;;;;;;;;;;;16.60;46.00;;;;;;5087651;28;42877;-81
2024/01/21 14:01:10;;;;;;;;;;;16.60;46.00;;;;;;5086872;27;43020;-80
2024/01/21 14:03:35;;;;;;;;;;;16.60;46.10;;;;;;5082205;28;42956;-81
2024/01/21 14:06:01;;;;;;;;;;;16.60;46.10;;;;;;5081553;28;43364;-81
2024/01/21 14:08:26;;;;;;;;;;;16.60;46.30;;;;;;5085921;27;42971;-80
2024/01/21 14:10:52;;;;;;;;;;;16.60;46.20;;;;;;5082390;27;43802;-81
2024/01/21 14:13:17;;;;;;;;;;;16.60;46.40;;;;;;5086484;27;43333;-80
2024/01/21 14:15:43;;;;;;;;;;;16.60;46.30;;;;;;5083552;27;44645;-80
2024/01/21 14:18:09;;;;;;;;;;;16.70;46.30;;;;;;5086417;28;42995;-81
2024/01/21 14:20:34;;;;;;;;;;;16.70;46.00;;;;;;5085247;28;44673;-81